Norwood Hollow, North Carolina
Current Conditions -  °F | °C
As of 11:15 AM on Saturday 25 Oct 2014 (Local Time) from KTNB Reporting Station
Clear Clear  
Wind Chill: 56°   Ceiling: Unl
Heat Index: 56°   Visibility: 10mi
Dew Point: 26°   Wind: 13mph
Humidity: 33%   Direction: 300°WNW
Pressure: 30.09"   Gusts: 21mph
Location:  36.1797°N, 81.8424°W
Report Text: KTNB 251515Z AUTO 30011G18KT 10SM CLR 13/M03 A3009 RMK AO2 T01311031
Loading
Personal Weather Stations






























Interactive Weather Map
Tropical Storm Tracking
New forecast layout! Learn more

10-Day Weather Forecast

Advertisements
Track Severe Weather on mobile